Buoy 51627

sailwx.info

Track history (hours):
 
Tides and Currents Weather Stations Pressure Air Temp Water Temp Dewpoint Dewpoint Depression Visibility Wind Speed Wind Dir Waves Ship Positions

Drifting buoy 51627

Last reported at 2015-Jul-05 17:00 UTC. Time now 2015-Jul-05 23:15 UTC.
Position N 08°43' W 160°05'.

Water temperature 28.5 ° C

Date/timePositionNaut miles runAvg speedWind from/ knotsBaromVisibWave heightAir tempDewpointWater temp
2015-Jul-05 17:00N 08°43' W 160°05'0 0.3 28.5
2015-Jul-05 16:00N 08°44' W 160°04'1 0.5 28.5
2015-Jul-05 13:00N 08°45' W 160°04'3 0.4 28.5
2015-Jul-05 06:00N 08°47' W 160°01'0 0.1 28.6
2015-Jul-05 05:00N 08°47' W 160°01'1 0.3 28.7
2015-Jul-05 03:00N 08°47' W 160°01'0 0.0 28.9
2015-Jul-05 02:00N 08°47' W 160°01'4 0.5 28.9
2015-Jul-04 18:00N 08°51' W 160°02'1 0.3 28.5
2015-Jul-04 16:00N 08°51' W 160°03'2 0.1 28.5
2015-Jul-04 04:00N 08°51' W 160°04'1 0.7 28.8
2015-Jul-04 03:00N 08°51' W 160°05'0 0.0 28.8
2015-Jul-03 20:00N 08°51' W 160°05'1 0.3 28.5
2015-Jul-03 16:00N 08°50' W 160°06'0 0.2 28.4
2015-Jul-03 13:00N 08°49' W 160°05'0 0.1 28.4
2015-Jul-03 12:00N 08°49' W 160°05'0 0.0 28.4
2015-Jul-03 11:00N 08°49' W 160°05'2 0.9 28.4
2015-Jul-03 09:00N 08°48' W 160°05'1 0.5 28.4
2015-Jul-03 08:00N 08°47' W 160°04'4 0.8 28.4
2015-Jul-03 03:00N 08°46' W 160°00'0 0.1 28.5
2015-Jul-03 02:00N 08°46' W 160°00'0 0.0 28.5
2015-Jul-03 01:00N 08°46' W 160°00'1 0.9 28.5
2015-Jul-03 00:00N 08°47' W 159°59'2 0.3 28.5
2015-Jul-02 17:00N 08°46' W 159°57'1 1.4 28.5
2015-Jul-02 16:00N 08°46' W 159°56'4 0.5 28.5
2015-Jul-02 08:00N 08°48' W 159°53'2 2.2 28.8
2015-Jul-02 07:00N 08°49' W 159°51'0 0.0 28.8
2015-Jul-02 05:00N 08°49' W 159°50'1 1.4 28.9
2015-Jul-02 04:00N 08°50' W 159°49'3 0.9 29.1
2015-Jul-02 01:00N 08°53' W 159°49'5 0.4 29.4
2015-Jul-01 14:00N 08°57' W 159°47'1 0.7 28.6
2015-Jul-01 13:00N 08°58' W 159°47'2 0.4 28.6
2015-Jul-01 09:00N 08°59' W 159°48'1 0.6 28.8
2015-Jul-01 08:00N 08°59' W 159°48'0 0.1 28.9
2015-Jul-01 04:00N 08°59' W 159°47'0 0.1 29.4
2015-Jul-01 02:00N 08°60' W 159°47'1 0.1 29.5
2015-Jun-30 17:00N 08°59' W 159°48'1 0.5 28.2
2015-Jun-30 16:00N 08°59' W 159°48'0 0.3 28.2
2015-Jun-30 15:00N 08°59' W 159°48'0 0.2 28.3
2015-Jun-30 14:00N 08°59' W 159°48'5 0.5 28.3
2015-Jun-30 04:00N 08°56' W 159°45'3 0.4 28.5
2015-Jun-29 20:00N 08°55' W 159°41'1 1.3 28.2
2015-Jun-29 19:00N 08°54' W 159°40'2 0.5 28.2
2015-Jun-29 15:00N 08°53' W 159°39'5 0.9 28.2
2015-Jun-29 09:00N 08°54' W 159°33'2 0.4 28.3
2015-Jun-29 05:00N 08°54' W 159°31'0 0.1 28.3
2015-Jun-29 04:00N 08°53' W 159°31'5 1.3 28.3
2015-Jun-29 00:00N 08°56' W 159°27'0 0.0 28.3
2015-Jun-28 23:00N 08°56' W 159°27'0 0.0 28.3
2015-Jun-28 21:00N 08°56' W 159°27'6 0.3 28.2
2015-Jun-28 03:00N 08°59' W 159°22'1 0.2 28.3
2015-Jun-28 00:00N 08°59' W 159°21'0 0.0 28.3
2015-Jun-27 23:00N 08°59' W 159°21'2 0.4 28.3
2015-Jun-27 17:00N 08°57' W 159°21'1 0.2 28.2
2015-Jun-27 13:00N 08°56' W 159°20'7 0.7 28.2
2015-Jun-27 03:00N 08°51' W 159°16'0 0.0 28.3
2015-Jun-27 02:00N 08°51' W 159°16'5 0.9 28.4
2015-Jun-26 20:00N 08°49' W 159°11'3 0.9 28.3
2015-Jun-26 16:00N 08°48' W 159°07'5 1.5 28.3
2015-Jun-26 13:00N 08°49' W 159°03'1 0.3 28.3
2015-Jun-26 09:00N 08°49' W 159°02'1 0.7 28.3
2015-Jun-26 08:00N 08°48' W 159°01'2 2.2 28.3
2015-Jun-26 07:00N 08°49' W 158°59'0 0.0 28.3
2015-Jun-26 06:00N 08°49' W 158°59'0 0.0 28.3
2015-Jun-26 05:00N 08°49' W 158°59'1 1.3 28.3
2015-Jun-26 04:00N 08°49' W 158°57'0 0.4 28.4
2015-Jun-26 03:00N 08°50' W 158°57'0 0.0 28.4
2015-Jun-26 02:00N 08°50' W 158°57'3 1.5 28.4
2015-Jun-26 00:00N 08°51' W 158°54'1 0.2 28.3
2015-Jun-25 21:00N 08°51' W 158°54'1 1.1 28.3
2015-Jun-25 20:00N 08°51' W 158°53'   28.3
Track history (hours):
 
Tides and Currents Weather Stations Pressure Air Temp Water Temp Dewpoint Dewpoint Depression Visibility Wind Speed Wind Dir Waves Ship Positions

Drifting buoy 51627

Last reported at 2015-Jul-05 17:00 UTC. Time now 2015-Jul-05 23:15 UTC.
Position N 08°43' W 160°05'.

Water temperature 28.5 ° C

Date/timePositionNaut miles runAvg speedWind from/ knotsBaromVisibWave heightAir tempDewpointWater temp
2015-Jul-05 17:00N 08°43' W 160°05'0 0.3 28.5
2015-Jul-05 16:00N 08°44' W 160°04'1 0.5 28.5
2015-Jul-05 13:00N 08°45' W 160°04'3 0.4 28.5
2015-Jul-05 06:00N 08°47' W 160°01'0 0.1 28.6
2015-Jul-05 05:00N 08°47' W 160°01'1 0.3 28.7
2015-Jul-05 03:00N 08°47' W 160°01'0 0.0 28.9
2015-Jul-05 02:00N 08°47' W 160°01'4 0.5 28.9
2015-Jul-04 18:00N 08°51' W 160°02'1 0.3 28.5
2015-Jul-04 16:00N 08°51' W 160°03'2 0.1 28.5
2015-Jul-04 04:00N 08°51' W 160°04'1 0.7 28.8
2015-Jul-04 03:00N 08°51' W 160°05'0 0.0 28.8
2015-Jul-03 20:00N 08°51' W 160°05'1 0.3 28.5
2015-Jul-03 16:00N 08°50' W 160°06'0 0.2 28.4
2015-Jul-03 13:00N 08°49' W 160°05'0 0.1 28.4
2015-Jul-03 12:00N 08°49' W 160°05'0 0.0 28.4
2015-Jul-03 11:00N 08°49' W 160°05'2 0.9 28.4
2015-Jul-03 09:00N 08°48' W 160°05'1 0.5 28.4
2015-Jul-03 08:00N 08°47' W 160°04'4 0.8 28.4
2015-Jul-03 03:00N 08°46' W 160°00'0 0.1 28.5
2015-Jul-03 02:00N 08°46' W 160°00'0 0.0 28.5
2015-Jul-03 01:00N 08°46' W 160°00'1 0.9 28.5
2015-Jul-03 00:00N 08°47' W 159°59'2 0.3 28.5
2015-Jul-02 17:00N 08°46' W 159°57'1 1.4 28.5
2015-Jul-02 16:00N 08°46' W 159°56'4 0.5 28.5
2015-Jul-02 08:00N 08°48' W 159°53'2 2.2 28.8
2015-Jul-02 07:00N 08°49' W 159°51'0 0.0 28.8
2015-Jul-02 05:00N 08°49' W 159°50'1 1.4 28.9
2015-Jul-02 04:00N 08°50' W 159°49'3 0.9 29.1
2015-Jul-02 01:00N 08°53' W 159°49'5 0.4 29.4
2015-Jul-01 14:00N 08°57' W 159°47'1 0.7 28.6
2015-Jul-01 13:00N 08°58' W 159°47'2 0.4 28.6
2015-Jul-01 09:00N 08°59' W 159°48'1 0.6 28.8
2015-Jul-01 08:00N 08°59' W 159°48'0 0.1 28.9
2015-Jul-01 04:00N 08°59' W 159°47'0 0.1 29.4
2015-Jul-01 02:00N 08°60' W 159°47'1 0.1 29.5
2015-Jun-30 17:00N 08°59' W 159°48'1 0.5 28.2
2015-Jun-30 16:00N 08°59' W 159°48'0 0.3 28.2
2015-Jun-30 15:00N 08°59' W 159°48'0 0.2 28.3
2015-Jun-30 14:00N 08°59' W 159°48'5 0.5 28.3
2015-Jun-30 04:00N 08°56' W 159°45'3 0.4 28.5
2015-Jun-29 20:00N 08°55' W 159°41'1 1.3 28.2
2015-Jun-29 19:00N 08°54' W 159°40'2 0.5 28.2
2015-Jun-29 15:00N 08°53' W 159°39'5 0.9 28.2
2015-Jun-29 09:00N 08°54' W 159°33'2 0.4 28.3
2015-Jun-29 05:00N 08°54' W 159°31'0 0.1 28.3
2015-Jun-29 04:00N 08°53' W 159°31'5 1.3 28.3
2015-Jun-29 00:00N 08°56' W 159°27'0 0.0 28.3
2015-Jun-28 23:00N 08°56' W 159°27'0 0.0 28.3
2015-Jun-28 21:00N 08°56' W 159°27'6 0.3 28.2
2015-Jun-28 03:00N 08°59' W 159°22'1 0.2 28.3
2015-Jun-28 00:00N 08°59' W 159°21'0 0.0 28.3
2015-Jun-27 23:00N 08°59' W 159°21'2 0.4 28.3
2015-Jun-27 17:00N 08°57' W 159°21'1 0.2 28.2
2015-Jun-27 13:00N 08°56' W 159°20'7 0.7 28.2
2015-Jun-27 03:00N 08°51' W 159°16'0 0.0 28.3
2015-Jun-27 02:00N 08°51' W 159°16'5 0.9 28.4
2015-Jun-26 20:00N 08°49' W 159°11'3 0.9 28.3
2015-Jun-26 16:00N 08°48' W 159°07'5 1.5 28.3
2015-Jun-26 13:00N 08°49' W 159°03'1 0.3 28.3
2015-Jun-26 09:00N 08°49' W 159°02'1 0.7 28.3
2015-Jun-26 08:00N 08°48' W 159°01'2 2.2 28.3
2015-Jun-26 07:00N 08°49' W 158°59'0 0.0 28.3
2015-Jun-26 06:00N 08°49' W 158°59'0 0.0 28.3
2015-Jun-26 05:00N 08°49' W 158°59'1 1.3 28.3
2015-Jun-26 04:00N 08°49' W 158°57'0 0.4 28.4
2015-Jun-26 03:00N 08°50' W 158°57'0 0.0 28.4
2015-Jun-26 02:00N 08°50' W 158°57'3 1.5 28.4
2015-Jun-26 00:00N 08°51' W 158°54'1 0.2 28.3
2015-Jun-25 21:00N 08°51' W 158°54'1 1.1 28.3
2015-Jun-25 20:00N 08°51' W 158°53'   28.3

Dump ship's entire track history